createdAt,value
2022-08-22T00:00:20.685Z,100129.25
2022-08-22T00:02:58.077Z,100158.16
2022-08-22T00:03:02.382Z,100094.72
2022-08-22T00:03:02.492Z,100100.59
2022-08-22T00:06:04.684Z,100163.75
2022-08-22T00:08:37.609Z,100156.66
2022-08-22T00:11:34.914Z,100119.84
2022-08-22T00:14:22.453Z,100143.41
2022-08-22T00:16:53.503Z,100147.47
2022-08-22T00:20:02.326Z,100144.13
2022-08-22T00:22:51.419Z,100128.03
2022-08-22T00:25:40.379Z,100139.28
2022-08-22T00:28:15.849Z,100136.22
2022-08-22T00:31:14.891Z,100134.69
2022-08-22T00:33:48.930Z,100148.28
2022-08-22T00:36:36.129Z,100122.63
2022-08-22T00:39:25.963Z,100138.56
2022-08-22T00:42:31.586Z,100141.00
2022-08-22T00:45:41.370Z,100138.72
2022-08-22T00:48:23.297Z,100135.94
2022-08-22T00:51:02.128Z,100087.34
2022-08-22T00:53:51.289Z,100138.56
2022-08-22T00:56:45.953Z,100128.03
2022-08-22T00:59:45.644Z,100133.31
2022-08-22T01:02:42.049Z,100134.16
2022-08-22T01:05:28.609Z,100132.47
2022-08-22T01:08:28.609Z,100134.78
2022-08-22T01:11:23.489Z,100130.25
2022-08-22T01:14:35.000Z,100125.13
2022-08-22T01:17:19.332Z,100119.56
2022-08-22T01:20:09.692Z,100130.25
2022-08-22T01:23:06.366Z,100066.41
2022-08-22T01:25:48.730Z,100117.09
2022-08-22T01:28:35.888Z,100115.84
2022-08-22T01:31:41.203Z,100114.72
2022-08-22T01:34:36.763Z,100116.53
2022-08-22T01:37:30.325Z,100084.72
2022-08-22T01:40:27.282Z,100107.22
2022-08-22T01:43:09.404Z,100046.56
2022-08-22T01:46:12.702Z,100093.50
2022-08-22T01:49:19.724Z,100105.28
2022-08-22T01:52:19.538Z,100095.94
2022-08-22T01:55:02.166Z,100095.13
2022-08-22T01:57:29.301Z,100099.97
2022-08-22T02:00:02.236Z,100105.09
2022-08-22T02:03:23.659Z,100090.94
2022-08-22T02:06:01.158Z,100089.38
2022-08-22T02:08:42.964Z,100106.34
2022-08-22T02:11:13.565Z,100101.75
2022-08-22T02:13:54.803Z,100110.44
2022-08-22T02:16:41.659Z,100091.38
2022-08-22T02:19:14.706Z,100100.63
2022-08-22T02:21:55.563Z,100103.72
2022-08-22T02:24:43.248Z,100109.88
2022-08-22T02:27:37.765Z,100099.00
2022-08-22T02:30:14.985Z,100101.94
2022-08-22T02:32:42.329Z,100101.59
2022-08-22T02:35:32.807Z,100098.19
2022-08-22T02:38:13.523Z,100106.34
2022-08-22T02:41:18.644Z,100101.44
2022-08-22T02:43:54.964Z,100102.38
2022-08-22T02:46:40.132Z,100103.28
2022-08-22T02:49:28.528Z,100094.69
2022-08-22T02:52:25.524Z,100095.16
2022-08-22T02:55:11.091Z,100093.06
2022-08-22T02:58:07.136Z,100067.31
2022-08-22T03:00:59.407Z,100097.72
2022-08-22T03:03:32.739Z,100096.38
2022-08-22T03:06:07.808Z,100091.75
2022-08-22T03:09:13.933Z,100093.97
2022-08-22T03:11:46.284Z,100097.69
2022-08-22T03:14:43.662Z,100102.44
2022-08-22T03:17:23.197Z,100101.47
2022-08-22T03:20:01.957Z,100070.13
2022-08-22T03:22:45.607Z,100107.09
2022-08-22T03:25:20.929Z,100104.47
2022-08-22T03:28:27.289Z,100100.41
2022-08-22T03:31:18.088Z,100094.19
2022-08-22T03:33:46.849Z,100096.69
2022-08-22T03:36:16.483Z,100106.84
2022-08-22T03:39:35.809Z,100101.94
2022-08-22T03:42:31.379Z,100102.81
2022-08-22T03:45:31.492Z,100073.78
2022-08-22T03:48:32.889Z,100108.75
2022-08-22T03:51:17.740Z,100109.34
2022-08-22T03:54:06.498Z,100113.16
2022-08-22T03:57:06.779Z,100084.13
2022-08-22T03:59:55.084Z,100112.25
2022-08-22T04:02:54.381Z,100120.63
2022-08-22T04:05:30.010Z,100119.44
2022-08-22T04:08:13.087Z,100124.44
2022-08-22T04:11:02.502Z,100113.19
2022-08-22T04:13:54.649Z,100116.28
2022-08-22T04:16:58.245Z,100094.16
2022-08-22T04:19:41.848Z,100081.72
2022-08-22T04:22:53.252Z,100124.22
2022-08-22T04:26:11.883Z,100099.97
2022-08-22T04:28:54.366Z,100131.78
2022-08-22T04:31:30.684Z,100130.97
2022-08-22T04:34:36.924Z,100100.81
2022-08-22T04:37:42.764Z,100141.13
2022-08-22T04:40:27.769Z,100126.09
2022-08-22T04:43:03.626Z,100129.47
2022-08-22T04:45:49.688Z,100133.88
2022-08-22T04:48:41.819Z,100122.28
2022-08-22T04:51:22.208Z,100135.81
2022-08-22T04:53:49.125Z,100140.47
2022-08-22T04:56:42.299Z,100121.63
2022-08-22T04:59:16.779Z,100139.59
2022-08-22T05:02:08.784Z,100139.09
2022-08-22T05:04:48.358Z,100142.41
2022-08-22T05:07:20.645Z,100127.41
2022-08-22T05:10:11.693Z,100142.16
2022-08-22T05:12:53.563Z,100143.41
2022-08-22T05:15:24.963Z,100145.13
2022-08-22T05:18:01.844Z,100146.16
2022-08-22T05:20:30.484Z,100143.06
2022-08-22T05:23:05.842Z,100134.50
2022-08-22T05:25:37.258Z,100113.00
2022-08-22T05:28:25.730Z,100145.31
2022-08-22T05:30:54.929Z,100145.44
2022-08-22T05:33:32.644Z,100140.69
2022-08-22T05:36:07.404Z,100116.94
2022-08-22T05:38:38.803Z,100149.69
2022-08-22T05:41:17.285Z,100143.06
2022-08-22T05:43:46.684Z,100144.13
2022-08-22T05:46:36.043Z,100142.53
2022-08-22T05:49:05.297Z,100103.19
2022-08-22T05:52:03.203Z,100126.88
2022-08-22T05:54:35.205Z,100167.84
2022-08-22T05:57:34.998Z,100152.31
2022-08-22T06:00:21.626Z,100155.66
2022-08-22T06:03:18.804Z,100156.75
2022-08-22T06:05:50.969Z,100153.94
2022-08-22T06:08:42.889Z,100156.44
2022-08-22T06:11:26.283Z,100126.69
2022-08-22T06:14:19.077Z,100127.91
2022-08-22T06:17:02.804Z,100152.53
2022-08-22T06:19:39.129Z,100150.59
2022-08-22T06:22:18.637Z,100161.91
2022-08-22T06:24:48.603Z,100158.88
2022-08-22T06:27:31.059Z,100157.63
2022-08-22T06:30:08.372Z,100178.66
2022-08-22T06:32:59.814Z,100172.41
2022-08-22T06:35:57.285Z,100167.13
2022-08-22T06:38:46.739Z,100177.56
2022-08-22T06:41:19.889Z,100189.91
2022-08-22T06:43:47.077Z,100183.28
2022-08-22T06:46:19.358Z,100157.69
2022-08-22T06:49:07.688Z,100158.88
2022-08-22T06:51:39.199Z,100186.13
2022-08-22T06:54:14.965Z,100183.53
2022-08-22T06:56:47.524Z,100157.72
2022-08-22T06:59:26.140Z,100184.94
2022-08-22T07:02:13.248Z,100178.38
2022-08-22T07:04:44.170Z,100190.75
2022-08-22T07:07:11.184Z,100199.78
2022-08-22T07:09:44.044Z,100188.72
2022-08-22T07:12:24.409Z,100207.22
2022-08-22T07:14:54.289Z,100199.81
2022-08-22T07:17:33.119Z,100191.84
2022-08-22T07:20:17.052Z,100197.72
2022-08-22T07:22:54.968Z,100171.44
2022-08-22T07:25:24.564Z,100192.09
2022-08-22T07:28:15.907Z,100191.31
2022-08-22T07:30:56.089Z,100171.28
2022-08-22T07:33:40.340Z,100200.59
2022-08-22T07:36:36.124Z,100200.81
2022-08-22T07:39:18.249Z,100206.75
2022-08-22T07:42:25.684Z,100171.03
2022-08-22T07:45:38.500Z,100198.75
2022-08-22T07:49:07.645Z,100206.09
2022-08-22T07:51:53.249Z,100193.78
2022-08-22T07:54:41.608Z,100198.28
2022-08-22T07:57:17.449Z,100198.69
2022-08-22T07:59:55.725Z,100160.50
2022-08-22T08:02:24.297Z,100199.66
2022-08-22T08:04:55.206Z,100196.25
2022-08-22T08:07:27.892Z,100198.38
2022-08-22T08:10:21.486Z,100194.34
2022-08-22T08:13:02.180Z,100198.38
2022-08-22T08:15:32.970Z,100198.69
2022-08-22T08:18:05.654Z,100204.25
2022-08-22T08:20:35.866Z,100196.84
2022-08-22T08:23:09.124Z,100194.84
2022-08-22T08:26:08.406Z,100194.69
2022-08-22T08:28:42.283Z,100192.34
2022-08-22T08:31:29.413Z,100195.91
2022-08-22T08:34:05.484Z,100161.69
2022-08-22T08:36:42.572Z,100190.91
2022-08-22T08:39:19.019Z,100197.56
2022-08-22T08:42:07.569Z,100202.34
2022-08-22T08:44:37.609Z,100189.72
2022-08-22T08:47:10.405Z,100189.38
2022-08-22T08:49:43.844Z,100194.50
2022-08-22T08:52:39.449Z,100187.41
2022-08-22T08:55:37.889Z,100183.72
2022-08-22T08:58:36.047Z,100192.50
2022-08-22T09:01:35.870Z,100194.00
2022-08-22T09:04:21.723Z,100195.41
2022-08-22T09:07:01.490Z,100202.22
2022-08-22T09:10:07.652Z,100201.97
2022-08-22T09:13:11.772Z,100197.31
2022-08-22T09:15:56.291Z,100193.72
2022-08-22T09:18:44.124Z,100153.16
2022-08-22T09:21:30.554Z,100198.31
2022-08-22T09:24:32.083Z,100199.75
2022-08-22T09:27:08.603Z,100181.88
2022-08-22T09:29:55.217Z,100198.88
2022-08-22T09:32:55.778Z,100195.19
2022-08-22T09:35:51.763Z,100189.47
2022-08-22T09:38:54.420Z,100171.84
2022-08-22T09:41:36.244Z,100188.19
2022-08-22T09:44:19.609Z,100184.34
2022-08-22T09:47:05.238Z,100178.50
2022-08-22T09:50:01.805Z,100180.88
2022-08-22T09:53:01.237Z,100174.25
2022-08-22T09:55:44.139Z,100177.31
2022-08-22T09:58:27.830Z,100176.91
2022-08-22T10:01:36.018Z,100172.97
2022-08-22T10:04:19.571Z,100162.16
2022-08-22T10:07:20.337Z,100156.75
2022-08-22T10:10:06.516Z,100159.47
2022-08-22T10:13:00.939Z,100161.38
2022-08-22T10:15:52.529Z,100165.59
2022-08-22T10:19:00.857Z,100153.47
2022-08-22T10:21:48.443Z,100155.50
2022-08-22T10:24:58.605Z,100145.44
2022-08-22T10:27:58.049Z,100155.00
2022-08-22T10:30:25.409Z,100150.19
2022-08-22T10:33:41.038Z,100150.97
2022-08-22T10:36:16.897Z,100135.94
2022-08-22T10:38:56.451Z,100142.63
2022-08-22T10:41:41.609Z,100141.28
2022-08-22T10:44:22.084Z,100132.22
2022-08-22T10:47:01.300Z,100132.97
2022-08-22T10:49:39.323Z,100136.81
2022-08-22T10:52:20.578Z,100135.84
2022-08-22T10:55:01.011Z,100132.06
2022-08-22T10:57:44.369Z,100100.97
2022-08-22T11:00:46.034Z,100135.50
2022-08-22T11:03:50.156Z,100118.38
2022-08-22T11:07:03.369Z,100117.97
2022-08-22T11:09:44.276Z,100116.66
2022-08-22T11:12:41.546Z,100117.28
2022-08-22T11:15:28.328Z,100085.91
2022-08-22T11:18:12.987Z,100106.03
2022-08-22T11:21:04.937Z,100103.66
2022-08-22T11:23:55.012Z,100108.41
2022-08-22T11:27:14.124Z,100108.16
2022-08-22T11:30:19.028Z,100090.81
2022-08-22T11:33:37.389Z,100092.78
2022-08-22T11:40:34.380Z,100091.25
2022-08-22T11:46:26.899Z,100087.56
2022-08-22T11:49:03.920Z,100082.25
2022-08-22T11:51:59.409Z,100079.00
2022-08-22T11:54:55.489Z,100079.28
2022-08-22T11:58:18.651Z,100072.19
2022-08-22T12:01:18.743Z,100078.59
2022-08-22T12:03:58.567Z,100067.00
2022-08-22T12:06:44.683Z,100070.56
2022-08-22T12:09:25.849Z,100072.78
2022-08-22T12:12:20.564Z,100073.81
2022-08-22T12:15:28.553Z,100075.78
2022-08-22T12:18:21.510Z,100079.63
2022-08-22T12:21:18.800Z,100074.22
2022-08-22T12:24:19.057Z,100063.69
2022-08-22T12:27:08.364Z,100037.59
2022-08-22T12:29:56.339Z,100066.06
2022-08-22T12:32:35.489Z,100064.00
2022-08-22T12:35:20.659Z,100053.66
2022-08-22T12:38:26.586Z,100056.50
2022-08-22T12:41:07.912Z,100057.69
2022-08-22T12:43:49.489Z,100023.53
2022-08-22T12:46:35.524Z,100046.91
2022-08-22T12:49:18.524Z,100049.59
2022-08-22T12:52:14.977Z,100049.88
2022-08-22T12:54:54.204Z,100038.53
2022-08-22T12:57:45.968Z,100041.97
2022-08-22T13:00:37.487Z,100016.94
2022-08-22T13:03:23.447Z,100033.50
2022-08-22T13:05:57.258Z,100040.28
2022-08-22T13:08:40.644Z,100031.63
2022-08-22T13:11:22.801Z,100029.56
2022-08-22T13:13:56.392Z,100023.38
2022-08-22T13:16:26.036Z,100020.22
2022-08-22T13:18:59.565Z,100015.69
2022-08-22T13:21:43.557Z,100026.88
2022-08-22T13:24:22.810Z,100017.06
2022-08-22T13:27:15.093Z,100011.44
2022-08-22T13:29:54.358Z,100017.81
2022-08-22T13:32:33.300Z,100013.84
2022-08-22T13:35:06.290Z,100010.25
2022-08-22T13:37:45.578Z,100007.44
2022-08-22T13:40:31.151Z,100009.94
2022-08-22T13:43:13.146Z,100012.34
2022-08-22T13:45:50.150Z,99997.47
2022-08-22T13:48:17.779Z,100011.09
2022-08-22T13:51:14.939Z,100000.53
2022-08-22T13:54:00.866Z,100003.47
2022-08-22T13:56:47.295Z,99993.22
2022-08-22T13:59:50.898Z,99996.22
2022-08-22T14:02:45.816Z,99993.34
2022-08-22T14:05:24.534Z,99994.16
2022-08-22T14:07:57.514Z,99969.44
2022-08-22T14:10:33.903Z,99988.34
2022-08-22T14:13:01.426Z,99995.59
2022-08-22T14:15:45.551Z,99982.59
2022-08-22T14:18:30.456Z,99957.81
2022-08-22T14:21:40.802Z,99976.63
2022-08-22T14:24:25.559Z,99971.09
2022-08-22T14:27:17.948Z,99972.13
2022-08-22T14:30:10.294Z,99972.59
2022-08-22T14:32:56.094Z,99970.19
2022-08-22T14:35:37.597Z,99944.59
2022-08-22T14:38:40.454Z,99971.31
2022-08-22T14:41:55.603Z,99960.66
2022-08-22T14:44:38.783Z,99914.97
2022-08-22T14:47:54.578Z,99960.56
2022-08-22T14:50:15.972Z,99954.56
2022-08-22T14:53:02.870Z,99942.69
2022-08-22T14:55:42.229Z,99950.66
2022-08-22T14:58:26.251Z,99948.53
2022-08-22T15:00:56.866Z,99942.66
2022-08-22T15:03:30.420Z,99950.91
2022-08-22T15:10:39.321Z,99946.34
2022-08-22T15:13:11.099Z,99948.25
2022-08-22T15:15:52.502Z,99934.16
2022-08-22T15:18:32.726Z,99921.22
2022-08-22T15:21:12.317Z,99937.44
2022-08-22T15:23:47.064Z,99941.38
2022-08-22T15:26:33.266Z,99932.56
2022-08-22T15:29:07.213Z,99941.19
2022-08-22T15:31:46.482Z,99935.91
2022-08-22T15:34:40.373Z,99925.97
2022-08-22T15:37:29.692Z,99941.38
2022-08-22T15:40:27.851Z,99934.31
2022-08-22T15:42:59.469Z,99936.16
2022-08-22T15:45:37.802Z,99932.84
2022-08-22T15:48:36.701Z,99922.78
2022-08-22T15:51:31.373Z,99925.22
2022-08-22T15:54:24.354Z,99913.53
2022-08-22T15:57:10.668Z,99922.13
2022-08-22T15:59:56.163Z,99893.28
2022-08-22T16:02:35.582Z,99910.69
2022-08-22T16:05:12.053Z,99913.88
2022-08-22T16:07:52.501Z,99914.63
2022-08-22T16:10:26.367Z,99911.91
2022-08-22T16:13:38.199Z,99913.16
2022-08-22T16:16:08.382Z,99889.59
2022-08-22T16:18:39.522Z,99910.28
2022-08-22T16:21:09.896Z,99910.16
2022-08-22T16:23:56.671Z,99911.81
2022-08-22T16:26:31.136Z,99900.81
2022-08-22T16:29:07.083Z,99903.75
2022-08-22T16:31:53.451Z,99917.81
2022-08-22T16:34:40.720Z,99908.41
2022-08-22T16:37:18.322Z,99912.09
2022-08-22T16:40:20.423Z,99906.63
2022-08-22T16:43:10.125Z,99906.91
2022-08-22T16:45:41.309Z,99909.69
2022-08-22T16:48:34.890Z,99913.91
2022-08-22T16:51:15.146Z,99906.13
2022-08-22T16:54:31.898Z,99910.94
2022-08-22T16:57:22.138Z,99911.34
2022-08-22T17:00:13.508Z,99913.97
2022-08-22T17:03:10.212Z,99912.84
2022-08-22T17:05:52.568Z,99889.63
2022-08-22T17:09:03.787Z,99916.88
2022-08-22T17:11:59.046Z,99919.09
2022-08-22T17:14:44.366Z,99914.50
2022-08-22T17:17:46.188Z,99916.41
2022-08-22T17:20:34.803Z,99912.59
2022-08-22T17:23:29.421Z,99922.41
2022-08-22T17:26:37.391Z,99918.13
2022-08-22T17:29:22.219Z,99915.53
2022-08-22T17:31:54.737Z,99918.81
2022-08-22T17:34:46.813Z,99927.94
2022-08-22T17:37:30.907Z,99926.66
2022-08-22T17:40:17.381Z,99922.03
2022-08-22T17:43:18.172Z,99922.75
2022-08-22T17:45:47.846Z,99919.44
2022-08-22T17:48:29.347Z,99914.50
2022-08-22T17:51:42.719Z,99909.72
2022-08-22T17:54:43.736Z,99923.31
2022-08-22T17:57:28.000Z,99927.72
2022-08-22T18:00:18.586Z,99937.22
2022-08-22T18:02:58.940Z,99932.22
2022-08-22T18:05:39.944Z,99926.00
2022-08-22T18:11:31.263Z,99926.13
2022-08-22T18:14:20.648Z,99932.56
2022-08-22T18:16:53.533Z,99928.47
2022-08-22T18:19:26.469Z,99928.91
2022-08-22T18:22:02.424Z,99934.03
2022-08-22T18:24:54.047Z,99926.97
2022-08-22T18:28:05.941Z,99934.09
2022-08-22T18:30:36.773Z,99931.25
2022-08-22T18:33:19.873Z,99936.47
2022-08-22T18:36:23.352Z,99932.88
2022-08-22T18:39:21.117Z,99944.66
2022-08-22T18:42:00.702Z,99936.91
2022-08-22T18:44:35.404Z,99942.03
2022-08-22T18:47:33.119Z,99945.91
2022-08-22T18:50:24.686Z,99950.84
2022-08-22T18:52:55.944Z,99938.28
2022-08-22T18:55:40.076Z,99949.88
2022-08-22T18:58:22.912Z,99951.09
2022-08-22T19:01:17.577Z,99952.75
2022-08-22T19:04:21.081Z,99952.72
2022-08-22T19:07:14.681Z,99938.13
2022-08-22T19:10:00.459Z,99929.31
2022-08-22T19:12:55.630Z,99955.03
2022-08-22T19:15:43.377Z,99969.44
2022-08-22T19:18:36.460Z,99963.47
2022-08-22T19:21:43.361Z,99968.38
2022-08-22T19:24:28.376Z,99979.66
2022-08-22T19:27:30.933Z,99977.28
2022-08-22T19:30:09.924Z,99974.78
2022-08-22T19:32:49.741Z,99982.91
2022-08-22T19:35:37.626Z,99977.63
2022-08-22T19:38:10.480Z,99977.50
2022-08-22T19:40:53.240Z,99990.09
2022-08-22T19:43:42.367Z,99981.69
2022-08-22T19:46:15.218Z,99988.44
2022-08-22T19:48:53.038Z,99944.84
2022-08-22T19:51:28.963Z,99996.22
2022-08-22T19:54:22.648Z,99990.19
2022-08-22T19:57:21.913Z,99989.88
2022-08-22T20:00:14.388Z,99997.19
2022-08-22T20:03:02.309Z,99947.13
2022-08-22T20:05:51.769Z,99991.22
2022-08-22T20:08:46.593Z,99995.88
2022-08-22T20:11:50.081Z,99994.22
2022-08-22T20:14:33.832Z,100002.75
2022-08-22T20:17:11.076Z,99992.66
2022-08-22T20:23:26.130Z,99998.88
2022-08-22T20:25:57.643Z,99998.94
2022-08-22T20:28:47.781Z,100000.34
2022-08-22T20:31:47.586Z,100003.63
2022-08-22T20:34:28.475Z,100004.19
2022-08-22T20:37:27.065Z,100001.56
2022-08-22T20:40:06.685Z,100011.25
2022-08-22T20:43:03.421Z,100011.84
2022-08-22T20:45:54.605Z,100004.88
2022-08-22T20:48:31.842Z,100013.13
2022-08-22T20:51:07.786Z,100004.75
2022-08-22T20:53:42.701Z,100013.03
2022-08-22T20:56:20.130Z,100006.84
2022-08-22T20:58:51.068Z,100008.72
2022-08-22T21:01:35.533Z,100010.19
2022-08-22T21:04:06.003Z,100015.50
2022-08-22T21:06:39.803Z,100023.88
2022-08-22T21:09:41.372Z,100021.09
2022-08-22T21:12:12.482Z,99964.31
2022-08-22T21:14:48.811Z,100019.34
2022-08-22T21:17:35.506Z,100032.19
2022-08-22T21:20:21.598Z,100022.84
2022-08-22T21:22:52.173Z,99962.06
2022-08-22T21:25:27.113Z,100010.75
2022-08-22T21:28:02.170Z,100019.63
2022-08-22T21:30:49.119Z,100033.34
2022-08-22T21:33:26.100Z,100012.09
2022-08-22T21:36:11.541Z,100023.56
2022-08-22T21:39:09.528Z,100022.22
2022-08-22T21:41:44.111Z,100026.53
2022-08-22T21:44:36.838Z,100017.28
2022-08-22T21:47:30.503Z,100025.13
2022-08-22T21:50:13.818Z,100021.91
2022-08-22T21:53:02.711Z,100030.41
2022-08-22T21:55:48.414Z,100027.63
2022-08-22T21:58:36.655Z,100021.97
2022-08-22T22:01:24.923Z,100030.53
2022-08-22T22:03:57.667Z,100026.19
2022-08-22T22:06:25.607Z,100028.81
2022-08-22T22:08:58.216Z,100020.94
2022-08-22T22:11:27.795Z,100030.47
2022-08-22T22:14:00.428Z,100032.72
2022-08-22T22:16:32.179Z,100033.13
2022-08-22T22:19:08.132Z,100035.53
2022-08-22T22:21:40.873Z,100042.38
2022-08-22T22:24:16.150Z,100049.78
2022-08-22T22:26:48.912Z,100051.31
2022-08-22T22:29:21.962Z,100035.53
2022-08-22T22:31:54.431Z,100051.16
2022-08-22T22:34:29.517Z,100052.78
2022-08-22T22:36:59.486Z,100054.31
2022-08-22T22:39:26.806Z,100057.34
2022-08-22T22:41:59.440Z,100063.41
2022-08-22T22:44:34.956Z,100060.09
2022-08-22T22:47:10.465Z,100063.91
2022-08-22T22:49:39.825Z,100065.69
2022-08-22T22:52:15.195Z,100077.13
2022-08-22T22:54:50.917Z,100070.63
2022-08-22T22:57:26.712Z,100067.53
2022-08-22T22:59:59.042Z,100032.44
2022-08-22T23:02:34.177Z,100069.28
2022-08-22T23:05:14.320Z,100073.34
2022-08-22T23:07:44.250Z,100077.00
2022-08-22T23:10:22.075Z,100078.09
2022-08-22T23:12:55.053Z,100077.19
2022-08-22T23:15:28.300Z,100072.13
2022-08-22T23:18:01.068Z,100077.34
2022-08-22T23:20:33.785Z,100069.59
2022-08-22T23:23:09.941Z,100050.47
2022-08-22T23:25:42.629Z,100058.25
2022-08-22T23:28:12.985Z,100050.84
2022-08-22T23:30:43.061Z,100080.66
2022-08-22T23:33:20.922Z,100094.28
2022-08-22T23:35:59.765Z,100093.88
2022-08-22T23:38:32.452Z,100092.13
2022-08-22T23:41:09.787Z,100090.44
2022-08-22T23:43:52.604Z,100089.25
2022-08-22T23:46:26.590Z,100067.53
2022-08-22T23:48:59.900Z,100084.97
2022-08-22T23:51:32.836Z,100097.44
2022-08-22T23:54:11.373Z,100102.69
2022-08-22T23:56:48.655Z,100096.44
2022-08-22T23:59:30.735Z,100099.00
